sensor_id;sensor_type;location;lat;lon;timestamp;temperature;humidity
4097;DHT22;2062;50.694;7.246;2022-11-15T00:01:08;23.20;35.20
4097;DHT22;2062;50.694;7.246;2022-11-15T00:03:35;23.30;35.30
4097;DHT22;2062;50.694;7.246;2022-11-15T00:06:03;23.30;35.30
4097;DHT22;2062;50.694;7.246;2022-11-15T00:08:30;23.20;35.20
4097;DHT22;2062;50.694;7.246;2022-11-15T00:10:58;23.20;35.20
4097;DHT22;2062;50.694;7.246;2022-11-15T00:13:26;23.20;35.20
4097;DHT22;2062;50.694;7.246;2022-11-15T00:15:56;23.20;35.20
4097;DHT22;2062;50.694;7.246;2022-11-15T00:18:23;23.20;35.10
4097;DHT22;2062;50.694;7.246;2022-11-15T00:20:50;23.20;35.20
4097;DHT22;2062;50.694;7.246;2022-11-15T00:23:17;23.20;35.10
4097;DHT22;2062;50.694;7.246;2022-11-15T00:25:44;23.20;35.10
4097;DHT22;2062;50.694;7.246;2022-11-15T00:28:10;23.20;35.10
4097;DHT22;2062;50.694;7.246;2022-11-15T00:30:37;23.20;35.10
4097;DHT22;2062;50.694;7.246;2022-11-15T00:33:06;23.20;35.10
4097;DHT22;2062;50.694;7.246;2022-11-15T00:35:33;23.20;35.10
4097;DHT22;2062;50.694;7.246;2022-11-15T00:38:01;23.20;35.10
4097;DHT22;2062;50.694;7.246;2022-11-15T00:40:28;23.20;35.10
4097;DHT22;2062;50.694;7.246;2022-11-15T00:42:55;23.20;35.10
4097;DHT22;2062;50.694;7.246;2022-11-15T00:45:22;23.20;35.10
4097;DHT22;2062;50.694;7.246;2022-11-15T00:47:49;23.20;35.10
4097;DHT22;2062;50.694;7.246;2022-11-15T00:50:17;23.20;35.10
4097;DHT22;2062;50.694;7.246;2022-11-15T00:52:44;23.20;35.00
4097;DHT22;2062;50.694;7.246;2022-11-15T00:55:13;23.20;35.10
4097;DHT22;2062;50.694;7.246;2022-11-15T00:57:41;23.20;35.00
4097;DHT22;2062;50.694;7.246;2022-11-15T01:00:08;23.30;35.20
4097;DHT22;2062;50.694;7.246;2022-11-15T01:02:35;23.20;35.00
4097;DHT22;2062;50.694;7.246;2022-11-15T01:05:02;23.20;35.00
4097;DHT22;2062;50.694;7.246;2022-11-15T01:07:30;23.20;35.10
4097;DHT22;2062;50.694;7.246;2022-11-15T01:09:57;23.20;35.00
4097;DHT22;2062;50.694;7.246;2022-11-15T01:12:24;23.20;35.00
4097;DHT22;2062;50.694;7.246;2022-11-15T01:14:51;23.20;35.10
4097;DHT22;2062;50.694;7.246;2022-11-15T01:17:19;23.20;35.00
4097;DHT22;2062;50.694;7.246;2022-11-15T01:19:45;23.20;35.00
4097;DHT22;2062;50.694;7.246;2022-11-15T01:22:13;23.20;35.00
4097;DHT22;2062;50.694;7.246;2022-11-15T01:24:41;23.20;35.70
4097;DHT22;2062;50.694;7.246;2022-11-15T01:27:08;23.30;35.10
4097;DHT22;2062;50.694;7.246;2022-11-15T01:29:34;23.20;35.00
4097;DHT22;2062;50.694;7.246;2022-11-15T01:32:01;23.30;35.10
4097;DHT22;2062;50.694;7.246;2022-11-15T01:34:28;23.20;35.00
4097;DHT22;2062;50.694;7.246;2022-11-15T01:36:55;23.10;35.00
4097;DHT22;2062;50.694;7.246;2022-11-15T01:39:21;23.30;35.10
4097;DHT22;2062;50.694;7.246;2022-11-15T01:41:50;23.20;35.00
4097;DHT22;2062;50.694;7.246;2022-11-15T01:44:39;23.20;35.00
4097;DHT22;2062;50.694;7.246;2022-11-15T01:47:09;23.20;35.00
4097;DHT22;2062;50.694;7.246;2022-11-15T01:49:40;23.20;35.00
4097;DHT22;2062;50.694;7.246;2022-11-15T01:52:12;23.20;35.00
4097;DHT22;2062;50.694;7.246;2022-11-15T01:54:40;23.20;35.00
4097;DHT22;2062;50.694;7.246;2022-11-15T01:57:09;23.20;35.00
4097;DHT22;2062;50.694;7.246;2022-11-15T01:59:38;23.20;35.00
4097;DHT22;2062;50.694;7.246;2022-11-15T02:02:06;23.20;35.00
4097;DHT22;2062;50.694;7.246;2022-11-15T02:04:35;23.20;35.00
4097;DHT22;2062;50.694;7.246;2022-11-15T02:07:04;23.20;35.00
4097;DHT22;2062;50.694;7.246;2022-11-15T02:09:31;23.20;35.00
4097;DHT22;2062;50.694;7.246;2022-11-15T02:11:59;23.20;35.00
4097;DHT22;2062;50.694;7.246;2022-11-15T02:14:28;23.10;35.00
4097;DHT22;2062;50.694;7.246;2022-11-15T02:16:59;23.20;35.00
4097;DHT22;2062;50.694;7.246;2022-11-15T02:19:48;23.20;35.00
4097;DHT22;2062;50.694;7.246;2022-11-15T02:22:26;23.10;35.00
4097;DHT22;2062;50.694;7.246;2022-11-15T02:25:27;23.20;35.00
4097;DHT22;2062;50.694;7.246;2022-11-15T02:28:27;23.20;35.00
4097;DHT22;2062;50.694;7.246;2022-11-15T02:31:03;23.20;35.00
4097;DHT22;2062;50.694;7.246;2022-11-15T02:33:36;23.20;35.00
4097;DHT22;2062;50.694;7.246;2022-11-15T02:36:09;23.10;35.00
4097;DHT22;2062;50.694;7.246;2022-11-15T02:38:40;23.20;35.00
4097;DHT22;2062;50.694;7.246;2022-11-15T02:41:10;23.10;35.00
4097;DHT22;2062;50.694;7.246;2022-11-15T02:43:45;23.10;35.00
4097;DHT22;2062;50.694;7.246;2022-11-15T02:46:31;23.10;35.00
4097;DHT22;2062;50.694;7.246;2022-11-15T02:49:16;23.20;35.00
4097;DHT22;2062;50.694;7.246;2022-11-15T02:51:45;23.20;35.00
4097;DHT22;2062;50.694;7.246;2022-11-15T02:54:15;23.20;35.00
4097;DHT22;2062;50.694;7.246;2022-11-15T02:56:43;23.20;35.00
4097;DHT22;2062;50.694;7.246;2022-11-15T03:02:16;23.10;35.00
4097;DHT22;2062;50.694;7.246;2022-11-15T03:04:53;23.10;35.00
4097;DHT22;2062;50.694;7.246;2022-11-15T03:07:25;23.10;35.00
4097;DHT22;2062;50.694;7.246;2022-11-15T03:10:00;23.20;35.00
4097;DHT22;2062;50.694;7.246;2022-11-15T03:12:34;23.20;34.90
4097;DHT22;2062;50.694;7.246;2022-11-15T03:15:05;23.10;35.00
4097;DHT22;2062;50.694;7.246;2022-11-15T03:17:36;23.20;35.00
4097;DHT22;2062;50.694;7.246;2022-11-15T03:20:06;23.20;35.00
4097;DHT22;2062;50.694;7.246;2022-11-15T03:22:36;23.20;34.90
4097;DHT22;2062;50.694;7.246;2022-11-15T03:25:09;23.10;34.90
4097;DHT22;2062;50.694;7.246;2022-11-15T03:27:39;23.10;34.90
4097;DHT22;2062;50.694;7.246;2022-11-15T03:30:09;23.20;35.00
4097;DHT22;2062;50.694;7.246;2022-11-15T03:32:41;23.20;34.90
4097;DHT22;2062;50.694;7.246;2022-11-15T03:35:13;23.20;34.90
4097;DHT22;2062;50.694;7.246;2022-11-15T03:37:44;23.20;34.90
4097;DHT22;2062;50.694;7.246;2022-11-15T03:40:12;23.20;34.90
4097;DHT22;2062;50.694;7.246;2022-11-15T03:42:45;23.20;34.90
4097;DHT22;2062;50.694;7.246;2022-11-15T03:45:15;23.20;34.90
4097;DHT22;2062;50.694;7.246;2022-11-15T03:47:48;23.10;34.90
4097;DHT22;2062;50.694;7.246;2022-11-15T03:50:18;23.20;34.90
4097;DHT22;2062;50.694;7.246;2022-11-15T03:52:46;23.20;34.90
4097;DHT22;2062;50.694;7.246;2022-11-15T03:55:16;23.20;34.90
4097;DHT22;2062;50.694;7.246;2022-11-15T03:57:44;23.10;34.90
4097;DHT22;2062;50.694;7.246;2022-11-15T04:00:11;23.10;34.90
4097;DHT22;2062;50.694;7.246;2022-11-15T04:02:38;23.20;34.90
4097;DHT22;2062;50.694;7.246;2022-11-15T04:05:07;23.10;34.90
4097;DHT22;2062;50.694;7.246;2022-11-15T04:07:34;23.20;34.90
4097;DHT22;2062;50.694;7.246;2022-11-15T04:10:00;23.20;34.90
4097;DHT22;2062;50.694;7.246;2022-11-15T04:12:31;23.10;34.90
4097;DHT22;2062;50.694;7.246;2022-11-15T04:14:59;23.10;34.90
4097;DHT22;2062;50.694;7.246;2022-11-15T04:17:36;23.20;34.80
4097;DHT22;2062;50.694;7.246;2022-11-15T04:20:06;23.30;34.90
4097;DHT22;2062;50.694;7.246;2022-11-15T04:22:52;23.20;34.90
4097;DHT22;2062;50.694;7.246;2022-11-15T04:25:37;23.10;34.90
4097;DHT22;2062;50.694;7.246;2022-11-15T04:28:03;23.10;34.90
4097;DHT22;2062;50.694;7.246;2022-11-15T04:30:30;23.10;34.80
4097;DHT22;2062;50.694;7.246;2022-11-15T04:32:57;23.10;34.80
4097;DHT22;2062;50.694;7.246;2022-11-15T04:35:25;23.10;34.80
4097;DHT22;2062;50.694;7.246;2022-11-15T04:37:52;23.20;34.80
4097;DHT22;2062;50.694;7.246;2022-11-15T04:40:18;23.20;34.90
4097;DHT22;2062;50.694;7.246;2022-11-15T04:42:45;23.20;34.80
4097;DHT22;2062;50.694;7.246;2022-11-15T04:45:12;23.20;34.80
4097;DHT22;2062;50.694;7.246;2022-11-15T04:47:39;23.20;34.80
4097;DHT22;2062;50.694;7.246;2022-11-15T04:50:06;23.10;34.80
4097;DHT22;2062;50.694;7.246;2022-11-15T04:52:35;23.20;34.80
4097;DHT22;2062;50.694;7.246;2022-11-15T04:55:01;23.10;34.80
4097;DHT22;2062;50.694;7.246;2022-11-15T04:57:28;23.20;34.80
4097;DHT22;2062;50.694;7.246;2022-11-15T04:59:55;23.10;34.80
4097;DHT22;2062;50.694;7.246;2022-11-15T05:02:22;23.10;34.80
4097;DHT22;2062;50.694;7.246;2022-11-15T05:04:48;23.10;34.80
4097;DHT22;2062;50.694;7.246;2022-11-15T05:07:14;23.10;34.80
4097;DHT22;2062;50.694;7.246;2022-11-15T05:09:42;23.20;34.80
4097;DHT22;2062;50.694;7.246;2022-11-15T05:12:09;23.20;34.80
4097;DHT22;2062;50.694;7.246;2022-11-15T05:14:36;23.20;34.80
4097;DHT22;2062;50.694;7.246;2022-11-15T05:17:02;23.10;34.80
4097;DHT22;2062;50.694;7.246;2022-11-15T05:19:29;23.20;34.80
4097;DHT22;2062;50.694;7.246;2022-11-15T05:21:56;23.10;34.80
4097;DHT22;2062;50.694;7.246;2022-11-15T05:24:23;23.10;35.00
4097;DHT22;2062;50.694;7.246;2022-11-15T05:26:51;23.10;35.10
4097;DHT22;2062;50.694;7.246;2022-11-15T05:29:17;23.20;35.20
4097;DHT22;2062;50.694;7.246;2022-11-15T05:31:44;23.20;35.40
4097;DHT22;2062;50.694;7.246;2022-11-15T05:34:11;23.20;35.40
4097;DHT22;2062;50.694;7.246;2022-11-15T05:36:39;23.20;35.30
4097;DHT22;2062;50.694;7.246;2022-11-15T05:39:07;23.30;35.60
4097;DHT22;2062;50.694;7.246;2022-11-15T05:41:37;23.30;35.60
4097;DHT22;2062;50.694;7.246;2022-11-15T05:44:08;23.20;35.50
4097;DHT22;2062;50.694;7.246;2022-11-15T05:46:37;23.20;35.50
4097;DHT22;2062;50.694;7.246;2022-11-15T05:49:06;23.20;35.50
4097;DHT22;2062;50.694;7.246;2022-11-15T05:51:35;23.20;35.50
4097;DHT22;2062;50.694;7.246;2022-11-15T05:54:02;23.20;35.50
4097;DHT22;2062;50.694;7.246;2022-11-15T05:56:30;23.30;35.50
4097;DHT22;2062;50.694;7.246;2022-11-15T05:58:57;23.30;35.50
4097;DHT22;2062;50.694;7.246;2022-11-15T06:01:26;23.30;35.50
4097;DHT22;2062;50.694;7.246;2022-11-15T06:03:53;23.30;35.20
4097;DHT22;2062;50.694;7.246;2022-11-15T06:06:20;23.30;35.30
4097;DHT22;2062;50.694;7.246;2022-11-15T06:08:47;23.30;35.30
4097;DHT22;2062;50.694;7.246;2022-11-15T06:11:14;23.30;35.40
4097;DHT22;2062;50.694;7.246;2022-11-15T06:13:41;23.30;35.40
4097;DHT22;2062;50.694;7.246;2022-11-15T06:16:07;23.30;35.40
4097;DHT22;2062;50.694;7.246;2022-11-15T06:18:36;23.20;35.30
4097;DHT22;2062;50.694;7.246;2022-11-15T06:21:03;23.30;35.40
4097;DHT22;2062;50.694;7.246;2022-11-15T06:23:32;23.30;35.40
4097;DHT22;2062;50.694;7.246;2022-11-15T06:26:00;23.20;35.40
4097;DHT22;2062;50.694;7.246;2022-11-15T06:28:28;23.20;35.30
4097;DHT22;2062;50.694;7.246;2022-11-15T06:30:55;23.20;35.40
4097;DHT22;2062;50.694;7.246;2022-11-15T06:33:22;23.30;35.40
4097;DHT22;2062;50.694;7.246;2022-11-15T06:35:50;23.20;35.40
4097;DHT22;2062;50.694;7.246;2022-11-15T06:38:17;23.30;35.50
4097;DHT22;2062;50.694;7.246;2022-11-15T06:40:44;23.20;35.40
4097;DHT22;2062;50.694;7.246;2022-11-15T06:43:11;23.20;35.40
4097;DHT22;2062;50.694;7.246;2022-11-15T06:45:37;23.30;35.50
4097;DHT22;2062;50.694;7.246;2022-11-15T06:48:05;23.30;35.50
4097;DHT22;2062;50.694;7.246;2022-11-15T06:50:32;23.30;35.50
4097;DHT22;2062;50.694;7.246;2022-11-15T06:53:03;23.40;35.50
4097;DHT22;2062;50.694;7.246;2022-11-15T06:55:30;23.30;35.40
4097;DHT22;2062;50.694;7.246;2022-11-15T06:57:56;23.30;35.50
4097;DHT22;2062;50.694;7.246;2022-11-15T07:00:23;23.30;35.50
4097;DHT22;2062;50.694;7.246;2022-11-15T07:02:50;23.30;35.50
4097;DHT22;2062;50.694;7.246;2022-11-15T07:05:17;23.30;35.50
4097;DHT22;2062;50.694;7.246;2022-11-15T07:07:50;23.30;35.60
4097;DHT22;2062;50.694;7.246;2022-11-15T07:10:18;23.30;35.60
4097;DHT22;2062;50.694;7.246;2022-11-15T07:12:47;23.30;35.50
4097;DHT22;2062;50.694;7.246;2022-11-15T07:15:14;23.30;35.60
4097;DHT22;2062;50.694;7.246;2022-11-15T07:17:41;23.30;35.60
4097;DHT22;2062;50.694;7.246;2022-11-15T07:20:08;23.30;35.60
4097;DHT22;2062;50.694;7.246;2022-11-15T07:22:35;23.30;35.60
4097;DHT22;2062;50.694;7.246;2022-11-15T07:25:03;23.30;35.70
4097;DHT22;2062;50.694;7.246;2022-11-15T07:27:31;23.30;35.70
4097;DHT22;2062;50.694;7.246;2022-11-15T07:29:58;23.30;35.70
4097;DHT22;2062;50.694;7.246;2022-11-15T07:32:24;23.30;35.70
4097;DHT22;2062;50.694;7.246;2022-11-15T07:34:52;23.30;35.70
4097;DHT22;2062;50.694;7.246;2022-11-15T07:37:18;23.30;35.70
4097;DHT22;2062;50.694;7.246;2022-11-15T07:39:45;23.40;35.70
4097;DHT22;2062;50.694;7.246;2022-11-15T07:42:12;23.30;35.70
4097;DHT22;2062;50.694;7.246;2022-11-15T07:44:57;23.30;35.70
4097;DHT22;2062;50.694;7.246;2022-11-15T07:47:24;23.30;35.70
4097;DHT22;2062;50.694;7.246;2022-11-15T07:49:51;23.40;35.70
4097;DHT22;2062;50.694;7.246;2022-11-15T07:52:18;23.30;35.70
4097;DHT22;2062;50.694;7.246;2022-11-15T07:54:45;23.30;35.70
4097;DHT22;2062;50.694;7.246;2022-11-15T07:57:11;23.40;35.70
4097;DHT22;2062;50.694;7.246;2022-11-15T07:59:38;23.30;35.70
4097;DHT22;2062;50.694;7.246;2022-11-15T08:02:08;23.30;35.70
4097;DHT22;2062;50.694;7.246;2022-11-15T08:04:35;23.30;35.70
4097;DHT22;2062;50.694;7.246;2022-11-15T08:07:02;23.40;35.70
4097;DHT22;2062;50.694;7.246;2022-11-15T08:09:28;23.40;35.70
4097;DHT22;2062;50.694;7.246;2022-11-15T08:11:55;23.30;35.70
4097;DHT22;2062;50.694;7.246;2022-11-15T08:14:22;23.30;35.70
4097;DHT22;2062;50.694;7.246;2022-11-15T08:16:48;23.40;35.70
4097;DHT22;2062;50.694;7.246;2022-11-15T08:19:17;23.30;35.70
4097;DHT22;2062;50.694;7.246;2022-11-15T08:21:43;23.40;35.60
4097;DHT22;2062;50.694;7.246;2022-11-15T08:24:10;23.40;35.70
4097;DHT22;2062;50.694;7.246;2022-11-15T08:26:37;23.40;35.70
4097;DHT22;2062;50.694;7.246;2022-11-15T08:29:05;23.40;35.70
4097;DHT22;2062;50.694;7.246;2022-11-15T08:31:32;23.40;35.60
4097;DHT22;2062;50.694;7.246;2022-11-15T08:34:00;23.40;35.70
4097;DHT22;2062;50.694;7.246;2022-11-15T08:36:29;23.40;35.70
4097;DHT22;2062;50.694;7.246;2022-11-15T08:38:55;23.40;35.70
4097;DHT22;2062;50.694;7.246;2022-11-15T08:41:25;23.40;35.70
4097;DHT22;2062;50.694;7.246;2022-11-15T08:43:53;23.40;35.60
4097;DHT22;2062;50.694;7.246;2022-11-15T08:46:20;23.40;35.60
4097;DHT22;2062;50.694;7.246;2022-11-15T08:48:46;23.40;35.60
4097;DHT22;2062;50.694;7.246;2022-11-15T08:51:13;23.40;35.60
4097;DHT22;2062;50.694;7.246;2022-11-15T08:53:42;23.50;35.70
4097;DHT22;2062;50.694;7.246;2022-11-15T08:56:10;23.40;35.60
4097;DHT22;2062;50.694;7.246;2022-11-15T08:58:38;23.40;35.60
4097;DHT22;2062;50.694;7.246;2022-11-15T09:01:05;23.40;35.60
4097;DHT22;2062;50.694;7.246;2022-11-15T09:03:31;23.40;35.60
4097;DHT22;2062;50.694;7.246;2022-11-15T09:06:00;23.40;35.50
4097;DHT22;2062;50.694;7.246;2022-11-15T09:08:30;23.50;35.60
4097;DHT22;2062;50.694;7.246;2022-11-15T09:10:58;23.40;35.60
4097;DHT22;2062;50.694;7.246;2022-11-15T09:13:28;23.40;35.70
4097;DHT22;2062;50.694;7.246;2022-11-15T09:15:57;23.40;35.80
4097;DHT22;2062;50.694;7.246;2022-11-15T09:18:24;23.50;35.90
4097;DHT22;2062;50.694;7.246;2022-11-15T09:20:51;23.50;36.00
4097;DHT22;2062;50.694;7.246;2022-11-15T09:23:17;23.50;36.00
4097;DHT22;2062;50.694;7.246;2022-11-15T09:25:44;23.50;36.00
4097;DHT22;2062;50.694;7.246;2022-11-15T09:28:12;23.50;36.10
4097;DHT22;2062;50.694;7.246;2022-11-15T09:30:39;23.50;36.10
4097;DHT22;2062;50.694;7.246;2022-11-15T09:33:07;23.50;36.20
4097;DHT22;2062;50.694;7.246;2022-11-15T09:35:34;23.70;36.10
4097;DHT22;2062;50.694;7.246;2022-11-15T09:38:00;23.60;35.80
4097;DHT22;2062;50.694;7.246;2022-11-15T09:40:27;23.60;35.50
4097;DHT22;2062;50.694;7.246;2022-11-15T09:43:07;23.60;35.50
4097;DHT22;2062;50.694;7.246;2022-11-15T09:45:41;23.60;35.50
4097;DHT22;2062;50.694;7.246;2022-11-15T09:48:31;23.60;35.40
4097;DHT22;2062;50.694;7.246;2022-11-15T09:51:03;23.60;35.50
4097;DHT22;2062;50.694;7.246;2022-11-15T09:53:38;23.60;35.50
4097;DHT22;2062;50.694;7.246;2022-11-15T09:56:14;23.60;35.50
4097;DHT22;2062;50.694;7.246;2022-11-15T09:58:50;23.60;35.50
4097;DHT22;2062;50.694;7.246;2022-11-15T10:01:32;23.60;35.50
4097;DHT22;2062;50.694;7.246;2022-11-15T10:04:01;23.70;35.60
4097;DHT22;2062;50.694;7.246;2022-11-15T10:06:28;23.60;35.60
4097;DHT22;2062;50.694;7.246;2022-11-15T10:09:01;23.60;35.60
4097;DHT22;2062;50.694;7.246;2022-11-15T10:11:31;23.70;35.70
4097;DHT22;2062;50.694;7.246;2022-11-15T10:14:02;23.60;35.60
4097;DHT22;2062;50.694;7.246;2022-11-15T10:16:46;23.60;35.70
4097;DHT22;2062;50.694;7.246;2022-11-15T10:19:20;23.60;35.60
4097;DHT22;2062;50.694;7.246;2022-11-15T10:21:58;23.70;35.70
4097;DHT22;2062;50.694;7.246;2022-11-15T10:24:28;23.70;35.70
4097;DHT22;2062;50.694;7.246;2022-11-15T10:26:58;23.70;35.70
4097;DHT22;2062;50.694;7.246;2022-11-15T10:29:25;23.70;35.70
4097;DHT22;2062;50.694;7.246;2022-11-15T10:31:54;23.60;35.70
4097;DHT22;2062;50.694;7.246;2022-11-15T10:34:22;23.70;35.70
4097;DHT22;2062;50.694;7.246;2022-11-15T10:36:55;23.70;35.70
4097;DHT22;2062;50.694;7.246;2022-11-15T10:39:22;23.70;35.80
4097;DHT22;2062;50.694;7.246;2022-11-15T10:41:49;23.70;35.80
4097;DHT22;2062;50.694;7.246;2022-11-15T10:44:25;23.70;35.80
4097;DHT22;2062;50.694;7.246;2022-11-15T10:50:01;23.70;35.70
4097;DHT22;2062;50.694;7.246;2022-11-15T10:52:30;23.70;35.70
4097;DHT22;2062;50.694;7.246;2022-11-15T10:55:01;23.80;35.70
4097;DHT22;2062;50.694;7.246;2022-11-15T10:57:31;23.70;35.70
4097;DHT22;2062;50.694;7.246;2022-11-15T11:00:02;23.70;35.70
4097;DHT22;2062;50.694;7.246;2022-11-15T11:02:35;23.70;35.70
4097;DHT22;2062;50.694;7.246;2022-11-15T11:05:06;23.70;35.70
4097;DHT22;2062;50.694;7.246;2022-11-15T11:07:35;23.80;35.70
4097;DHT22;2062;50.694;7.246;2022-11-15T11:10:04;23.80;35.70
4097;DHT22;2062;50.694;7.246;2022-11-15T11:12:33;23.70;35.70
4097;DHT22;2062;50.694;7.246;2022-11-15T11:15:05;23.80;35.70
4097;DHT22;2062;50.694;7.246;2022-11-15T11:17:49;23.80;35.70
4097;DHT22;2062;50.694;7.246;2022-11-15T11:20:24;23.80;35.70
4097;DHT22;2062;50.694;7.246;2022-11-15T11:23:14;23.80;35.70
4097;DHT22;2062;50.694;7.246;2022-11-15T11:25:49;23.80;35.70
4097;DHT22;2062;50.694;7.246;2022-11-15T11:28:27;23.80;35.60
4097;DHT22;2062;50.694;7.246;2022-11-15T11:31:05;23.90;35.80
4097;DHT22;2062;50.694;7.246;2022-11-15T11:33:40;23.90;35.70
4097;DHT22;2062;50.694;7.246;2022-11-15T11:36:20;23.80;35.60
4097;DHT22;2062;50.694;7.246;2022-11-15T11:38:55;23.90;35.70
4097;DHT22;2062;50.694;7.246;2022-11-15T11:41:37;23.80;35.60
4097;DHT22;2062;50.694;7.246;2022-11-15T11:44:15;23.90;35.70
4097;DHT22;2062;50.694;7.246;2022-11-15T11:46:49;23.80;35.60
4097;DHT22;2062;50.694;7.246;2022-11-15T11:49:23;23.80;35.60
4097;DHT22;2062;50.694;7.246;2022-11-15T11:51:56;23.80;35.60
4097;DHT22;2062;50.694;7.246;2022-11-15T11:54:33;23.80;35.60
4097;DHT22;2062;50.694;7.246;2022-11-15T11:57:05;23.80;35.60
4097;DHT22;2062;50.694;7.246;2022-11-15T11:59:41;23.80;35.60
4097;DHT22;2062;50.694;7.246;2022-11-15T12:02:15;23.80;36.30
4097;DHT22;2062;50.694;7.246;2022-11-15T12:04:46;23.80;35.60
4097;DHT22;2062;50.694;7.246;2022-11-15T12:07:19;23.80;35.60
4097;DHT22;2062;50.694;7.246;2022-11-15T12:09:51;23.80;35.60
4097;DHT22;2062;50.694;7.246;2022-11-15T12:12:25;23.80;35.50
4097;DHT22;2062;50.694;7.246;2022-11-15T12:14:56;23.80;35.50
4097;DHT22;2062;50.694;7.246;2022-11-15T12:17:25;23.80;35.60
4097;DHT22;2062;50.694;7.246;2022-11-15T12:19:55;23.80;35.60
4097;DHT22;2062;50.694;7.246;2022-11-15T12:22:36;23.80;35.60
4097;DHT22;2062;50.694;7.246;2022-11-15T12:25:08;23.80;35.60
4097;DHT22;2062;50.694;7.246;2022-11-15T12:27:42;23.80;35.60
4097;DHT22;2062;50.694;7.246;2022-11-15T12:30:14;23.80;35.80
4097;DHT22;2062;50.694;7.246;2022-11-15T12:32:50;23.80;35.60
4097;DHT22;2062;50.694;7.246;2022-11-15T12:35:24;23.80;35.60
4097;DHT22;2062;50.694;7.246;2022-11-15T12:37:54;23.80;35.60
4097;DHT22;2062;50.694;7.246;2022-11-15T12:40:35;23.80;35.60
4097;DHT22;2062;50.694;7.246;2022-11-15T12:43:32;23.80;35.60
4097;DHT22;2062;50.694;7.246;2022-11-15T12:46:02;23.70;35.60
4097;DHT22;2062;50.694;7.246;2022-11-15T12:48:57;23.80;35.60
4097;DHT22;2062;50.694;7.246;2022-11-15T12:55:00;23.80;35.60
4097;DHT22;2062;50.694;7.246;2022-11-15T12:57:33;23.80;35.60
4097;DHT22;2062;50.694;7.246;2022-11-15T13:00:02;23.70;35.60
4097;DHT22;2062;50.694;7.246;2022-11-15T13:02:33;23.70;35.60
4097;DHT22;2062;50.694;7.246;2022-11-15T13:08:36;23.70;35.60
4097;DHT22;2062;50.694;7.246;2022-11-15T13:14:40;23.70;35.60
4097;DHT22;2062;50.694;7.246;2022-11-15T13:17:29;23.70;35.50
4097;DHT22;2062;50.694;7.246;2022-11-15T13:20:09;23.70;35.50
4097;DHT22;2062;50.694;7.246;2022-11-15T13:22:42;23.70;35.50
4097;DHT22;2062;50.694;7.246;2022-11-15T13:25:33;23.70;35.40
4097;DHT22;2062;50.694;7.246;2022-11-15T13:28:11;23.70;35.40
4097;DHT22;2062;50.694;7.246;2022-11-15T13:30:48;23.70;35.30
4097;DHT22;2062;50.694;7.246;2022-11-15T13:33:19;23.70;35.30
4097;DHT22;2062;50.694;7.246;2022-11-15T13:35:48;23.70;35.20
4097;DHT22;2062;50.694;7.246;2022-11-15T13:38:19;23.70;35.20
4097;DHT22;2062;50.694;7.246;2022-11-15T13:40:51;23.70;35.10
4097;DHT22;2062;50.694;7.246;2022-11-15T13:43:27;23.70;35.20
4097;DHT22;2062;50.694;7.246;2022-11-15T13:46:07;23.70;35.20
4097;DHT22;2062;50.694;7.246;2022-11-15T13:48:34;23.60;35.10
4097;DHT22;2062;50.694;7.246;2022-11-15T13:51:04;23.60;35.10
4097;DHT22;2062;50.694;7.246;2022-11-15T13:53:32;23.70;35.10
4097;DHT22;2062;50.694;7.246;2022-11-15T13:56:00;23.60;35.00
4097;DHT22;2062;50.694;7.246;2022-11-15T13:58:29;23.60;35.00
4097;DHT22;2062;50.694;7.246;2022-11-15T14:01:00;23.60;35.00
4097;DHT22;2062;50.694;7.246;2022-11-15T14:03:31;23.60;34.90
4097;DHT22;2062;50.694;7.246;2022-11-15T14:06:07;23.60;34.90
4097;DHT22;2062;50.694;7.246;2022-11-15T14:08:37;23.60;34.90
4097;DHT22;2062;50.694;7.246;2022-11-15T14:11:12;23.60;34.80
4097;DHT22;2062;50.694;7.246;2022-11-15T14:13:39;23.60;35.50
4097;DHT22;2062;50.694;7.246;2022-11-15T14:16:17;23.60;34.80
4097;DHT22;2062;50.694;7.246;2022-11-15T14:18:50;23.60;34.80
4097;DHT22;2062;50.694;7.246;2022-11-15T14:21:18;23.60;34.80
4097;DHT22;2062;50.694;7.246;2022-11-15T14:23:45;23.60;34.80
4097;DHT22;2062;50.694;7.246;2022-11-15T14:26:28;23.70;34.90
4097;DHT22;2062;50.694;7.246;2022-11-15T14:28:55;23.60;34.70
4097;DHT22;2062;50.694;7.246;2022-11-15T14:31:22;23.60;34.80
4097;DHT22;2062;50.694;7.246;2022-11-15T14:33:50;23.60;34.80
4097;DHT22;2062;50.694;7.246;2022-11-15T14:36:19;23.50;34.80
4097;DHT22;2062;50.694;7.246;2022-11-15T14:38:46;23.50;34.80
4097;DHT22;2062;50.694;7.246;2022-11-15T14:41:24;23.60;34.80
4097;DHT22;2062;50.694;7.246;2022-11-15T14:43:52;23.50;34.80
4097;DHT22;2062;50.694;7.246;2022-11-15T14:46:19;23.50;34.80
4097;DHT22;2062;50.694;7.246;2022-11-15T14:48:46;23.50;34.80
4097;DHT22;2062;50.694;7.246;2022-11-15T14:51:16;23.60;34.80
4097;DHT22;2062;50.694;7.246;2022-11-15T14:53:44;23.50;34.80
4097;DHT22;2062;50.694;7.246;2022-11-15T14:56:12;23.50;34.70
4097;DHT22;2062;50.694;7.246;2022-11-15T14:58:39;23.50;34.50
4097;DHT22;2062;50.694;7.246;2022-11-15T15:01:13;23.50;35.30
4097;DHT22;2062;50.694;7.246;2022-11-15T15:03:40;23.50;34.60
4097;DHT22;2062;50.694;7.246;2022-11-15T15:06:07;23.50;34.60
4097;DHT22;2062;50.694;7.246;2022-11-15T15:08:36;23.50;34.60
4097;DHT22;2062;50.694;7.246;2022-11-15T15:11:07;23.50;34.60
4097;DHT22;2062;50.694;7.246;2022-11-15T15:13:35;23.50;34.70
4097;DHT22;2062;50.694;7.246;2022-11-15T15:16:02;23.50;34.60
4097;DHT22;2062;50.694;7.246;2022-11-15T15:18:29;23.50;34.70
4097;DHT22;2062;50.694;7.246;2022-11-15T15:20:57;23.60;34.80
4097;DHT22;2062;50.694;7.246;2022-11-15T15:23:28;23.50;34.70
4097;DHT22;2062;50.694;7.246;2022-11-15T15:25:57;23.50;34.70
4097;DHT22;2062;50.694;7.246;2022-11-15T15:28:24;23.50;34.70
4097;DHT22;2062;50.694;7.246;2022-11-15T15:30:53;23.50;34.70
4097;DHT22;2062;50.694;7.246;2022-11-15T15:33:19;23.50;34.70
4097;DHT22;2062;50.694;7.246;2022-11-15T15:35:46;23.50;34.60
4097;DHT22;2062;50.694;7.246;2022-11-15T15:38:13;23.50;34.60
4097;DHT22;2062;50.694;7.246;2022-11-15T15:40:40;23.50;34.60
4097;DHT22;2062;50.694;7.246;2022-11-15T15:43:09;23.50;34.60
4097;DHT22;2062;50.694;7.246;2022-11-15T15:45:37;23.40;34.60
4097;DHT22;2062;50.694;7.246;2022-11-15T15:48:04;23.50;34.60
4097;DHT22;2062;50.694;7.246;2022-11-15T15:50:33;23.40;34.50
4097;DHT22;2062;50.694;7.246;2022-11-15T15:53:03;23.40;34.50
4097;DHT22;2062;50.694;7.246;2022-11-15T15:55:30;23.50;34.60
4097;DHT22;2062;50.694;7.246;2022-11-15T15:57:57;23.40;34.50
4097;DHT22;2062;50.694;7.246;2022-11-15T16:00:25;23.40;34.50
4097;DHT22;2062;50.694;7.246;2022-11-15T16:02:53;23.40;34.50
4097;DHT22;2062;50.694;7.246;2022-11-15T16:05:20;23.40;34.50
4097;DHT22;2062;50.694;7.246;2022-11-15T16:07:47;23.40;34.50
4097;DHT22;2062;50.694;7.246;2022-11-15T16:10:22;23.40;34.60
4097;DHT22;2062;50.694;7.246;2022-11-15T16:12:51;23.40;34.50
4097;DHT22;2062;50.694;7.246;2022-11-15T16:15:18;23.50;34.60
4097;DHT22;2062;50.694;7.246;2022-11-15T16:17:50;23.50;34.60
4097;DHT22;2062;50.694;7.246;2022-11-15T16:20:26;23.40;34.50
4097;DHT22;2062;50.694;7.246;2022-11-15T16:22:54;23.40;34.40
4097;DHT22;2062;50.694;7.246;2022-11-15T16:25:21;23.40;34.40
4097;DHT22;2062;50.694;7.246;2022-11-15T16:27:48;23.40;34.50
4097;DHT22;2062;50.694;7.246;2022-11-15T16:30:17;23.40;34.40
4097;DHT22;2062;50.694;7.246;2022-11-15T16:32:44;23.40;34.40
4097;DHT22;2062;50.694;7.246;2022-11-15T16:35:13;23.30;34.40
4097;DHT22;2062;50.694;7.246;2022-11-15T16:37:41;23.40;34.40